»·PEaware :: ASA498 KPDX-KLAX

ASA498 :: KPDX-KLAX

FLIGHT INFORMATION

Flight Status: Arrived
Operator:
Alaska Airlines
More flights by this operator :: More flights under this callsign
Pilot: Jac C. (16067)
Aircraft: BOEING 737-800
(B738)
More flights by this aircraft type
Origin: KPDX Portland Intl
United States
Destination: KLAX Los Angeles Intl
United States
More flights between these airports :: More routes between these airports
Route: +CASCD2 JOGEN Q7 JAGWA BURGL IRNMN1
File this flight plan on PilotEdge
Remarks:
Altitude:
(Current/Filed)
35,000ft
Speed:
(Current/Filed)
450kts
Departed: 04-Mar-18 12:18 PM
Arrived: 04-Mar-18 02:17 PM
Distance/Time
Traveled:
725nm/1:58
Distance/Time
To Go:
Arrived

Flight Plot

Page will automatically refresh every two minutes.

Flight plan parsing failed; only flown route is shown


Map Options




Map Legend


Flown Route
Filed Route
Departure Airport
Arrival Airport
Navaid (VOR, NDB)
Fix

Horizontal Profiles

Position Reports

Time Latitude Longitude Heading Altitude Ground
Speed
04-Mar-18 11:51 45.591582 -122.595197 194 37ft 0kts
04-Mar-18 11:52 45.591582 -122.595197 194 37ft 0kts
04-Mar-18 11:53 45.591582 -122.595197 194 37ft 0kts
04-Mar-18 11:54 45.591582 -122.595197 194 37ft 0kts
04-Mar-18 11:55 45.591582 -122.595197 194 37ft 0kts
04-Mar-18 11:56 45.591582 -122.595197 194 36ft 0kts
04-Mar-18 11:57 45.591582 -122.595197 194 36ft 0kts
04-Mar-18 11:58 45.591582 -122.595197 194 36ft 0kts
04-Mar-18 11:59 45.591582 -122.595197 194 36ft 0kts
04-Mar-18 12:00 45.591582 -122.595197 194 36ft 0kts
04-Mar-18 12:01 45.591582 -122.595197 194 36ft 0kts
04-Mar-18 12:02 45.591582 -122.595197 194 36ft 0kts
04-Mar-18 12:03 45.591582 -122.595197 194 36ft 0kts
04-Mar-18 12:04 45.591582 -122.595197 194 36ft 0kts
04-Mar-18 12:05 45.591582 -122.595197 194 36ft 0kts
04-Mar-18 12:06 45.591582 -122.595197 194 36ft 0kts
04-Mar-18 12:07 45.591582 -122.595197 194 36ft 0kts
04-Mar-18 12:08 45.591582 -122.595197 194 36ft 0kts
04-Mar-18 12:09 45.591582 -122.595197 194 36ft 0kts
04-Mar-18 12:10 45.591582 -122.595197 194 36ft 0kts
04-Mar-18 12:11 45.591582 -122.595197 194 36ft 0kts
04-Mar-18 12:12 45.591582 -122.595197 194 36ft 0kts
04-Mar-18 12:13 45.591582 -122.595197 194 36ft 0kts
04-Mar-18 12:14 45.591776 -122.595123 194 37ft 2kts
04-Mar-18 12:15 45.592180 -122.594586 259 37ft 2kts
04-Mar-18 12:16 45.592110 -122.594081 298 36ft 0kts
04-Mar-18 12:17 45.592110 -122.594081 298 36ft 0kts
04-Mar-18 12:18 45.592117 -122.594099 298 36ft 1kts
04-Mar-18 12:19 45.593602 -122.597918 299 37ft 15kts
04-Mar-18 12:20 45.595314 -122.601647 2 36ft 7kts
04-Mar-18 12:21 45.595679 -122.600785 71 36ft 0kts
04-Mar-18 12:22 45.595679 -122.600785 71 36ft 0kts
04-Mar-18 12:23 45.595679 -122.600785 71 36ft 0kts
04-Mar-18 12:24 45.596351 -122.599677 102 36ft 6kts
04-Mar-18 12:25 45.584741 -122.569355 117 290ft 179kts
04-Mar-18 12:26 45.571387 -122.498331 100 2808ft 204kts
04-Mar-18 12:27 45.556095 -122.406842 103 4798ft 264kts
04-Mar-18 12:28 45.529206 -122.314519 140 7427ft 280kts
04-Mar-18 12:29 45.477385 -122.271930 169 9376ft 289kts
04-Mar-18 12:30 45.399498 -122.250211 170 11245ft 321kts
04-Mar-18 12:31 45.340544 -122.233200 170 12988ft 329kts
04-Mar-18 12:32 45.252509 -122.207620 170 15429ft 342kts
04-Mar-18 12:33 45.163409 -122.181756 171 17690ft 356kts
04-Mar-18 12:34 45.078797 -122.157264 171 19604ft 369kts
04-Mar-18 12:35 44.985717 -122.099972 156 21533ft 388kts
04-Mar-18 12:36 44.893318 -122.035821 156 23301ft 402kts
04-Mar-18 12:37 44.809974 -121.978461 156 24731ft 413kts
04-Mar-18 12:38 44.751490 -121.938343 156 25665ft 421kts
04-Mar-18 12:39 44.649881 -121.868866 156 27122ft 433kts
04-Mar-18 12:40 44.546908 -121.798730 156 28493ft 445kts
04-Mar-18 12:41 44.458965 -121.739048 156 29651ft 451kts
04-Mar-18 12:42 44.352778 -121.667247 157 31185ft 451kts
04-Mar-18 12:43 44.234787 -121.628941 175 32595ft 443kts
04-Mar-18 12:44 44.114774 -121.601612 175 33890ft 443kts
04-Mar-18 12:45 43.994964 -121.574118 175 35135ft 441kts
04-Mar-18 12:46 43.882542 -121.548444 174 35217ft 467kts
04-Mar-18 12:47 43.847898 -121.540532 174 35214ft 475kts
04-Mar-18 12:48 43.759308 -121.520312 174 35202ft 486kts
04-Mar-18 12:49 43.698930 -121.506552 174 35201ft 484kts
04-Mar-18 12:50 43.568836 -121.477037 174 35204ft 484kts
04-Mar-18 12:51 43.439876 -121.447897 174 35205ft 484kts
04-Mar-18 12:52 43.309490 -121.418549 174 35206ft 484kts
04-Mar-18 12:53 43.178701 -121.389228 174 35208ft 484kts
04-Mar-18 12:54 43.046364 -121.359679 174 35232ft 484kts
04-Mar-18 12:55 42.986600 -121.346351 175 35233ft 486kts
04-Mar-18 12:56 42.901475 -121.327371 176 35231ft 489kts
04-Mar-18 12:57 42.797265 -121.304295 177 35222ft 489kts
04-Mar-18 12:58 42.678541 -121.278096 177 35225ft 489kts
04-Mar-18 12:59 42.545544 -121.248855 177 35226ft 489kts
04-Mar-18 13:00 42.412420 -121.219707 176 35226ft 489kts
04-Mar-18 13:01 42.279012 -121.190619 177 35228ft 489kts
04-Mar-18 13:02 42.145340 -121.161598 176 35228ft 489kts
04-Mar-18 13:03 42.012205 -121.132816 176 35228ft 488kts
04-Mar-18 13:04 41.883391 -121.105080 176 35226ft 488kts
04-Mar-18 13:05 41.756936 -121.077970 176 35225ft 488kts
04-Mar-18 13:06 41.623940 -121.049573 176 35226ft 488kts
04-Mar-18 13:07 41.491063 -121.021323 176 35228ft 487kts
04-Mar-18 13:08 41.358010 -120.993159 176 35229ft 487kts
04-Mar-18 13:09 41.224868 -120.965100 176 35231ft 487kts
04-Mar-18 13:10 41.091514 -120.937110 176 35233ft 486kts
04-Mar-18 13:11 40.959043 -120.913999 184 35244ft 476kts
04-Mar-18 13:12 40.833997 -120.905230 184 35252ft 476kts
04-Mar-18 13:13 40.704025 -120.895407 184 35265ft 476kts
04-Mar-18 13:14 40.572219 -120.885380 184 35266ft 476kts
04-Mar-18 13:15 40.440317 -120.875341 184 35267ft 476kts
04-Mar-18 13:16 40.309652 -120.865343 184 35253ft 465kts
04-Mar-18 13:17 40.180682 -120.855576 184 35269ft 468kts
04-Mar-18 13:18 40.051187 -120.845712 184 35269ft 467kts
04-Mar-18 13:19 39.921955 -120.835871 184 35269ft 468kts
04-Mar-18 13:20 39.800038 -120.826585 184 35268ft 467kts
04-Mar-18 13:21 39.672615 -120.816881 184 35288ft 467kts
04-Mar-18 13:22 39.547015 -120.807314 184 35288ft 467kts
04-Mar-18 13:23 39.419165 -120.797573 184 35286ft 467kts
04-Mar-18 13:24 39.290882 -120.787797 184 35284ft 467kts
04-Mar-18 13:25 39.163484 -120.778092 184 35284ft 467kts
04-Mar-18 13:26 39.036932 -120.768443 184 35288ft 467kts
04-Mar-18 13:27 38.909753 -120.758678 187 35328ft 460kts
04-Mar-18 13:28 38.805313 -120.750758 187 35345ft 457kts
04-Mar-18 13:29 38.693031 -120.742223 187 35342ft 456kts
04-Mar-18 13:30 38.567104 -120.732630 187 35342ft 457kts
04-Mar-18 13:31 38.441066 -120.723020 187 35351ft 456kts
04-Mar-18 13:32 38.317308 -120.713589 187 35354ft 457kts
04-Mar-18 13:33 38.191548 -120.703997 187 35355ft 456kts
04-Mar-18 13:34 38.065766 -120.694407 187 35354ft 457kts
04-Mar-18 13:35 37.940829 -120.684881 187 35355ft 456kts
04-Mar-18 13:36 37.821930 -120.675817 187 35332ft 457kts
04-Mar-18 13:37 37.697073 -120.666299 187 35300ft 457kts
04-Mar-18 13:38 37.574487 -120.656950 187 35275ft 457kts
04-Mar-18 13:39 37.447900 -120.647297 187 35049ft 457kts
04-Mar-18 13:40 37.322880 -120.636283 179 35066ft 469kts
04-Mar-18 13:41 37.196974 -120.595159 175 35264ft 474kts
04-Mar-18 13:42 37.070439 -120.553944 176 35377ft 470kts
04-Mar-18 13:43 36.946999 -120.513975 178 35374ft 451kts
04-Mar-18 13:44 36.832538 -120.477206 178 35382ft 453kts
04-Mar-18 13:45 36.711870 -120.438467 178 35386ft 452kts
04-Mar-18 13:46 36.590683 -120.399688 178 35390ft 454kts
04-Mar-18 13:47 36.469270 -120.360937 178 35389ft 453kts
04-Mar-18 13:48 36.354699 -120.324488 179 35367ft 451kts
04-Mar-18 13:49 36.234041 -120.286246 178 35365ft 453kts
04-Mar-18 13:50 36.120361 -120.250301 179 35366ft 452kts
04-Mar-18 13:51 35.998764 -120.211980 179 35369ft 452kts
04-Mar-18 13:52 35.880991 -120.174974 179 35354ft 452kts
04-Mar-18 13:53 35.772519 -120.140997 179 35346ft 451kts
04-Mar-18 13:54 35.652083 -120.097853 163 35332ft 477kts
04-Mar-18 13:55 35.557011 -120.025814 160 35340ft 485kts
04-Mar-18 13:56 35.424050 -119.925510 160 35341ft 483kts
04-Mar-18 13:57 35.329242 -119.854450 160 35345ft 484kts
04-Mar-18 13:58 35.202310 -119.743510 154 35255ft 473kts
04-Mar-18 13:59 35.119917 -119.666327 155 34501ft 449kts
04-Mar-18 14:00 35.019648 -119.573229 152 31745ft 461kts
04-Mar-18 14:01 34.921577 -119.482248 151 29493ft 456kts
04-Mar-18 14:02 34.823460 -119.394134 150 27419ft 454kts
04-Mar-18 14:03 34.724193 -119.305781 150 25289ft 445kts
04-Mar-18 14:04 34.628300 -119.222262 150 23273ft 433kts
04-Mar-18 14:05 34.532637 -119.139261 148 21271ft 421kts
04-Mar-18 14:06 34.439990 -119.057204 147 19317ft 408kts
04-Mar-18 14:07 34.349302 -118.978666 147 17267ft 398kts
04-Mar-18 14:08 34.262719 -118.900474 144 15234ft 382kts
04-Mar-18 14:09 34.183859 -118.828074 143 13475ft 339kts
04-Mar-18 14:10 34.113748 -118.755351 137 11932ft 325kts
04-Mar-18 14:11 34.049817 -118.685607 138 10538ft 305kts
04-Mar-18 14:12 34.023466 -118.595751 93 9180ft 288kts
04-Mar-18 14:13 34.014576 -118.503658 93 7919ft 266kts
04-Mar-18 14:14 34.015278 -118.424364 73 6885ft 239kts
04-Mar-18 14:15 34.028228 -118.349940 75 5971ft 232kts
04-Mar-18 14:16 34.039351 -118.285607 75 5250ft 231kts
04-Mar-18 14:17 34.051739 -118.214081 75 3952ft 222kts
04-Mar-18 14:18 34.013846 -118.170646 182 2875ft 230kts
04-Mar-18 14:19 33.956162 -118.181789 220 2605ft 209kts
04-Mar-18 14:20 33.953193 -118.235885 286 2536ft 173kts
04-Mar-18 14:21 33.961114 -118.291753 271 2001ft 166kts
04-Mar-18 14:22 33.957993 -118.340364 266 1060ft 137kts
04-Mar-18 14:23 33.953591 -118.386351 263 393ft 140kts
04-Mar-18 14:24 33.950457 -118.416981 252 113ft 6kts
04-Mar-18 14:25 33.949284 -118.419400 232 113ft 0kts
04-Mar-18 14:26 33.947308 -118.422545 229 113ft 14kts
04-Mar-18 14:27 33.947033 -118.422865 207 113ft 1kts
04-Mar-18 14:28 33.947071 -118.420010 83 113ft 15kts
04-Mar-18 14:29 33.947524 -118.415569 83 113ft 12kts
04-Mar-18 14:30 33.946711 -118.412778 173 113ft 14kts
04-Mar-18 14:31 33.942463 -118.412139 172 113ft 14kts
04-Mar-18 14:32 33.938573 -118.411424 132 113ft 8kts
04-Mar-18 14:33 33.938891 -118.406983 83 112ft 20kts
04-Mar-18 14:34 33.939878 -118.402466 39 113ft 7kts
04-Mar-18 14:35 33.940036 -118.402314 38 113ft 0kts

Navigation Log

Ident Type
Flight plan parsing failed, navigation log unavailable